sensor_id;sensor_type;location;lat;lon;timestamp;P1;durP1;ratioP1;P2;durP2;ratioP2
18748;SDS011;9503;53.560;10.246;2023-05-03T00:01:13;4.43;;;2.53;;
18748;SDS011;9503;53.560;10.246;2023-05-03T00:03:40;4.90;;;2.70;;
18748;SDS011;9503;53.560;10.246;2023-05-03T00:06:10;4.50;;;2.40;;
18748;SDS011;9503;53.560;10.246;2023-05-03T00:08:37;5.27;;;2.60;;
18748;SDS011;9503;53.560;10.246;2023-05-03T00:11:08;5.90;;;2.90;;
18748;SDS011;9503;53.560;10.246;2023-05-03T00:13:35;3.63;;;2.40;;
18748;SDS011;9503;53.560;10.246;2023-05-03T00:16:02;7.80;;;2.37;;
18748;SDS011;9503;53.560;10.246;2023-05-03T00:18:28;4.00;;;2.73;;
18748;SDS011;9503;53.560;10.246;2023-05-03T00:20:56;3.70;;;2.40;;
18748;SDS011;9503;53.560;10.246;2023-05-03T00:23:23;5.33;;;2.97;;
18748;SDS011;9503;53.560;10.246;2023-05-03T00:25:51;3.87;;;2.63;;
18748;SDS011;9503;53.560;10.246;2023-05-03T00:28:19;3.13;;;2.83;;
18748;SDS011;9503;53.560;10.246;2023-05-03T00:30:45;5.30;;;2.90;;
18748;SDS011;9503;53.560;10.246;2023-05-03T00:33:12;5.07;;;2.87;;
18748;SDS011;9503;53.560;10.246;2023-05-03T00:35:39;5.00;;;2.40;;
18748;SDS011;9503;53.560;10.246;2023-05-03T00:38:06;4.37;;;2.90;;
18748;SDS011;9503;53.560;10.246;2023-05-03T00:40:32;5.47;;;3.00;;
18748;SDS011;9503;53.560;10.246;2023-05-03T00:42:59;5.07;;;2.90;;
18748;SDS011;9503;53.560;10.246;2023-05-03T00:45:27;7.83;;;3.73;;
18748;SDS011;9503;53.560;10.246;2023-05-03T00:47:55;3.87;;;3.03;;
18748;SDS011;9503;53.560;10.246;2023-05-03T00:50:22;6.77;;;3.67;;
18748;SDS011;9503;53.560;10.246;2023-05-03T00:52:49;8.27;;;3.53;;
18748;SDS011;9503;53.560;10.246;2023-05-03T00:55:19;9.73;;;4.57;;
18748;SDS011;9503;53.560;10.246;2023-05-03T00:57:46;3.37;;;2.87;;
18748;SDS011;9503;53.560;10.246;2023-05-03T01:00:13;6.47;;;3.80;;
18748;SDS011;9503;53.560;10.246;2023-05-03T01:02:43;7.67;;;3.67;;
18748;SDS011;9503;53.560;10.246;2023-05-03T01:05:09;4.63;;;3.30;;
18748;SDS011;9503;53.560;10.246;2023-05-03T01:07:39;5.77;;;2.90;;
18748;SDS011;9503;53.560;10.246;2023-05-03T01:10:16;4.83;;;3.13;;
18748;SDS011;9503;53.560;10.246;2023-05-03T01:12:53;7.30;;;3.50;;
18748;SDS011;9503;53.560;10.246;2023-05-03T01:15:32;5.90;;;3.27;;
18748;SDS011;9503;53.560;10.246;2023-05-03T01:18:10;5.13;;;3.27;;
18748;SDS011;9503;53.560;10.246;2023-05-03T01:20:41;5.67;;;3.33;;
18748;SDS011;9503;53.560;10.246;2023-05-03T01:23:13;6.57;;;4.00;;
18748;SDS011;9503;53.560;10.246;2023-05-03T01:25:51;7.13;;;3.47;;
18748;SDS011;9503;53.560;10.246;2023-05-03T01:28:18;5.53;;;3.40;;
18748;SDS011;9503;53.560;10.246;2023-05-03T01:30:44;6.27;;;4.00;;
18748;SDS011;9503;53.560;10.246;2023-05-03T01:33:15;7.60;;;4.37;;
18748;SDS011;9503;53.560;10.246;2023-05-03T01:35:49;8.80;;;3.70;;
18748;SDS011;9503;53.560;10.246;2023-05-03T01:38:20;6.63;;;4.23;;
18748;SDS011;9503;53.560;10.246;2023-05-03T01:40:48;6.17;;;3.43;;
18748;SDS011;9503;53.560;10.246;2023-05-03T01:43:18;5.53;;;3.67;;
18748;SDS011;9503;53.560;10.246;2023-05-03T01:45:47;4.83;;;3.33;;
18748;SDS011;9503;53.560;10.246;2023-05-03T01:48:15;6.87;;;3.57;;
18748;SDS011;9503;53.560;10.246;2023-05-03T01:50:43;5.37;;;3.40;;
18748;SDS011;9503;53.560;10.246;2023-05-03T01:53:10;5.37;;;3.40;;
18748;SDS011;9503;53.560;10.246;2023-05-03T01:55:37;5.97;;;3.70;;
18748;SDS011;9503;53.560;10.246;2023-05-03T01:58:04;7.70;;;4.00;;
18748;SDS011;9503;53.560;10.246;2023-05-03T02:00:32;5.60;;;3.40;;
18748;SDS011;9503;53.560;10.246;2023-05-03T02:02:59;4.93;;;3.70;;
18748;SDS011;9503;53.560;10.246;2023-05-03T02:05:25;6.47;;;3.53;;
18748;SDS011;9503;53.560;10.246;2023-05-03T02:07:52;5.37;;;3.87;;
18748;SDS011;9503;53.560;10.246;2023-05-03T02:10:19;6.73;;;3.90;;
18748;SDS011;9503;53.560;10.246;2023-05-03T02:12:45;5.33;;;3.30;;
18748;SDS011;9503;53.560;10.246;2023-05-03T02:15:12;5.17;;;3.80;;
18748;SDS011;9503;53.560;10.246;2023-05-03T02:17:40;7.90;;;3.93;;
18748;SDS011;9503;53.560;10.246;2023-05-03T02:20:09;5.97;;;3.63;;
18748;SDS011;9503;53.560;10.246;2023-05-03T02:22:36;4.03;;;3.63;;
18748;SDS011;9503;53.560;10.246;2023-05-03T02:25:03;11.37;;;4.00;;
18748;SDS011;9503;53.560;10.246;2023-05-03T02:27:30;8.17;;;4.60;;
18748;SDS011;9503;53.560;10.246;2023-05-03T02:29:57;7.97;;;4.57;;
18748;SDS011;9503;53.560;10.246;2023-05-03T02:32:24;11.07;;;4.40;;
18748;SDS011;9503;53.560;10.246;2023-05-03T02:34:52;9.37;;;4.20;;
18748;SDS011;9503;53.560;10.246;2023-05-03T02:37:19;5.57;;;4.20;;
18748;SDS011;9503;53.560;10.246;2023-05-03T02:39:46;12.10;;;5.00;;
18748;SDS011;9503;53.560;10.246;2023-05-03T02:42:13;8.80;;;4.63;;
18748;SDS011;9503;53.560;10.246;2023-05-03T02:44:40;13.13;;;4.43;;
18748;SDS011;9503;53.560;10.246;2023-05-03T02:47:06;9.57;;;4.77;;
18748;SDS011;9503;53.560;10.246;2023-05-03T02:49:34;8.80;;;4.20;;
18748;SDS011;9503;53.560;10.246;2023-05-03T02:52:02;9.77;;;4.70;;
18748;SDS011;9503;53.560;10.246;2023-05-03T02:54:28;8.03;;;4.10;;
18748;SDS011;9503;53.560;10.246;2023-05-03T02:56:55;6.37;;;4.30;;
18748;SDS011;9503;53.560;10.246;2023-05-03T02:59:22;6.97;;;4.10;;
18748;SDS011;9503;53.560;10.246;2023-05-03T03:01:48;7.83;;;4.10;;
18748;SDS011;9503;53.560;10.246;2023-05-03T03:04:15;9.47;;;4.40;;
18748;SDS011;9503;53.560;10.246;2023-05-03T03:06:41;10.47;;;4.57;;
18748;SDS011;9503;53.560;10.246;2023-05-03T03:09:09;6.30;;;4.43;;
18748;SDS011;9503;53.560;10.246;2023-05-03T03:11:36;8.10;;;4.70;;
18748;SDS011;9503;53.560;10.246;2023-05-03T03:14:03;11.30;;;5.43;;
18748;SDS011;9503;53.560;10.246;2023-05-03T03:16:31;15.60;;;6.60;;
18748;SDS011;9503;53.560;10.246;2023-05-03T03:18:58;9.33;;;5.17;;
18748;SDS011;9503;53.560;10.246;2023-05-03T03:21:24;8.00;;;5.00;;
18748;SDS011;9503;53.560;10.246;2023-05-03T03:23:53;10.53;;;4.70;;
18748;SDS011;9503;53.560;10.246;2023-05-03T03:26:21;14.53;;;5.33;;
18748;SDS011;9503;53.560;10.246;2023-05-03T03:28:48;14.77;;;5.30;;
18748;SDS011;9503;53.560;10.246;2023-05-03T03:31:15;8.57;;;4.97;;
18748;SDS011;9503;53.560;10.246;2023-05-03T03:33:42;8.70;;;4.33;;
18748;SDS011;9503;53.560;10.246;2023-05-03T03:36:08;9.07;;;5.17;;
18748;SDS011;9503;53.560;10.246;2023-05-03T03:38:35;9.77;;;4.90;;
18748;SDS011;9503;53.560;10.246;2023-05-03T03:41:02;9.40;;;4.47;;
18748;SDS011;9503;53.560;10.246;2023-05-03T03:43:30;14.77;;;5.30;;
18748;SDS011;9503;53.560;10.246;2023-05-03T03:45:56;7.83;;;5.17;;
18748;SDS011;9503;53.560;10.246;2023-05-03T03:48:23;11.03;;;4.87;;
18748;SDS011;9503;53.560;10.246;2023-05-03T03:50:50;9.43;;;4.73;;
18748;SDS011;9503;53.560;10.246;2023-05-03T03:53:16;9.00;;;5.00;;
18748;SDS011;9503;53.560;10.246;2023-05-03T03:55:43;8.17;;;4.70;;
18748;SDS011;9503;53.560;10.246;2023-05-03T03:58:10;8.33;;;4.57;;
18748;SDS011;9503;53.560;10.246;2023-05-03T04:00:38;9.93;;;4.97;;
18748;SDS011;9503;53.560;10.246;2023-05-03T04:03:05;7.10;;;4.97;;
18748;SDS011;9503;53.560;10.246;2023-05-03T04:05:32;8.60;;;3.90;;
18748;SDS011;9503;53.560;10.246;2023-05-03T04:07:58;9.40;;;4.90;;
18748;SDS011;9503;53.560;10.246;2023-05-03T04:10:25;10.00;;;4.50;;
18748;SDS011;9503;53.560;10.246;2023-05-03T04:12:52;9.00;;;4.90;;
18748;SDS011;9503;53.560;10.246;2023-05-03T04:15:18;9.40;;;4.57;;
18748;SDS011;9503;53.560;10.246;2023-05-03T04:17:47;10.27;;;4.60;;
18748;SDS011;9503;53.560;10.246;2023-05-03T04:20:13;6.43;;;4.53;;
18748;SDS011;9503;53.560;10.246;2023-05-03T04:22:41;11.33;;;4.63;;
18748;SDS011;9503;53.560;10.246;2023-05-03T04:25:09;11.97;;;4.77;;
18748;SDS011;9503;53.560;10.246;2023-05-03T04:27:38;7.10;;;4.27;;
18748;SDS011;9503;53.560;10.246;2023-05-03T04:30:05;11.07;;;4.33;;
18748;SDS011;9503;53.560;10.246;2023-05-03T04:32:36;11.57;;;4.83;;
18748;SDS011;9503;53.560;10.246;2023-05-03T04:35:06;7.10;;;4.00;;
18748;SDS011;9503;53.560;10.246;2023-05-03T04:37:34;11.97;;;4.53;;
18748;SDS011;9503;53.560;10.246;2023-05-03T04:40:01;7.57;;;4.37;;
18748;SDS011;9503;53.560;10.246;2023-05-03T04:42:31;12.97;;;5.07;;
18748;SDS011;9503;53.560;10.246;2023-05-03T04:44:58;9.87;;;5.10;;
18748;SDS011;9503;53.560;10.246;2023-05-03T04:47:24;7.03;;;4.47;;
18748;SDS011;9503;53.560;10.246;2023-05-03T04:49:51;9.67;;;4.20;;
18748;SDS011;9503;53.560;10.246;2023-05-03T04:52:19;11.03;;;4.63;;
18748;SDS011;9503;53.560;10.246;2023-05-03T04:54:45;8.50;;;4.40;;
18748;SDS011;9503;53.560;10.246;2023-05-03T04:57:12;11.90;;;5.13;;
18748;SDS011;9503;53.560;10.246;2023-05-03T04:59:39;8.93;;;3.87;;
18748;SDS011;9503;53.560;10.246;2023-05-03T05:02:05;5.90;;;3.50;;
18748;SDS011;9503;53.560;10.246;2023-05-03T05:04:32;8.37;;;4.60;;
18748;SDS011;9503;53.560;10.246;2023-05-03T05:06:59;15.80;;;5.20;;
18748;SDS011;9503;53.560;10.246;2023-05-03T05:09:27;7.33;;;4.13;;
18748;SDS011;9503;53.560;10.246;2023-05-03T05:11:55;7.87;;;4.10;;
18748;SDS011;9503;53.560;10.246;2023-05-03T05:14:21;9.90;;;4.50;;
18748;SDS011;9503;53.560;10.246;2023-05-03T05:16:48;9.33;;;4.37;;
18748;SDS011;9503;53.560;10.246;2023-05-03T05:19:15;8.17;;;4.83;;
18748;SDS011;9503;53.560;10.246;2023-05-03T05:21:41;10.23;;;4.60;;
18748;SDS011;9503;53.560;10.246;2023-05-03T05:24:08;10.87;;;5.00;;
18748;SDS011;9503;53.560;10.246;2023-05-03T05:26:36;13.00;;;4.30;;
18748;SDS011;9503;53.560;10.246;2023-05-03T05:29:03;8.97;;;4.77;;
18748;SDS011;9503;53.560;10.246;2023-05-03T05:31:30;9.70;;;4.33;;
18748;SDS011;9503;53.560;10.246;2023-05-03T05:33:57;14.27;;;5.50;;
18748;SDS011;9503;53.560;10.246;2023-05-03T05:36:23;8.87;;;4.43;;
18748;SDS011;9503;53.560;10.246;2023-05-03T05:38:50;9.37;;;4.30;;
18748;SDS011;9503;53.560;10.246;2023-05-03T05:41:16;7.83;;;4.37;;
18748;SDS011;9503;53.560;10.246;2023-05-03T05:43:44;10.80;;;4.33;;
18748;SDS011;9503;53.560;10.246;2023-05-03T05:46:11;9.87;;;4.77;;
18748;SDS011;9503;53.560;10.246;2023-05-03T05:48:38;7.23;;;4.17;;
18748;SDS011;9503;53.560;10.246;2023-05-03T05:51:06;8.67;;;4.40;;
18748;SDS011;9503;53.560;10.246;2023-05-03T05:53:33;11.63;;;4.53;;
18748;SDS011;9503;53.560;10.246;2023-05-03T05:55:59;9.90;;;4.13;;
18748;SDS011;9503;53.560;10.246;2023-05-03T05:58:26;8.03;;;3.97;;
18748;SDS011;9503;53.560;10.246;2023-05-03T06:00:57;11.30;;;4.17;;
18748;SDS011;9503;53.560;10.246;2023-05-03T06:03:25;6.40;;;3.97;;
18748;SDS011;9503;53.560;10.246;2023-05-03T06:05:52;10.03;;;4.07;;
18748;SDS011;9503;53.560;10.246;2023-05-03T06:08:18;8.47;;;3.73;;
18748;SDS011;9503;53.560;10.246;2023-05-03T06:10:45;5.23;;;3.30;;
18748;SDS011;9503;53.560;10.246;2023-05-03T06:13:12;8.43;;;3.70;;
18748;SDS011;9503;53.560;10.246;2023-05-03T06:15:39;5.07;;;2.93;;
18748;SDS011;9503;53.560;10.246;2023-05-03T06:18:07;10.27;;;3.13;;
18748;SDS011;9503;53.560;10.246;2023-05-03T06:20:34;4.63;;;2.80;;
18748;SDS011;9503;53.560;10.246;2023-05-03T06:23:01;7.53;;;3.40;;
18748;SDS011;9503;53.560;10.246;2023-05-03T06:25:27;8.43;;;3.77;;
18748;SDS011;9503;53.560;10.246;2023-05-03T06:27:54;5.67;;;2.77;;
18748;SDS011;9503;53.560;10.246;2023-05-03T06:30:20;7.07;;;2.40;;
18748;SDS011;9503;53.560;10.246;2023-05-03T06:32:49;3.27;;;2.10;;
18748;SDS011;9503;53.560;10.246;2023-05-03T06:35:17;9.17;;;2.60;;
18748;SDS011;9503;53.560;10.246;2023-05-03T06:37:45;4.77;;;2.10;;
18748;SDS011;9503;53.560;10.246;2023-05-03T06:40:12;3.97;;;2.13;;
18748;SDS011;9503;53.560;10.246;2023-05-03T06:42:42;3.40;;;1.90;;
18748;SDS011;9503;53.560;10.246;2023-05-03T06:45:09;6.47;;;1.70;;
18748;SDS011;9503;53.560;10.246;2023-05-03T06:47:36;6.37;;;1.63;;
18748;SDS011;9503;53.560;10.246;2023-05-03T06:50:04;2.97;;;1.77;;
18748;SDS011;9503;53.560;10.246;2023-05-03T06:52:32;4.83;;;1.60;;
18748;SDS011;9503;53.560;10.246;2023-05-03T06:54:59;2.97;;;1.70;;
18748;SDS011;9503;53.560;10.246;2023-05-03T06:57:26;5.43;;;1.73;;
18748;SDS011;9503;53.560;10.246;2023-05-03T06:59:53;5.23;;;1.47;;
18748;SDS011;9503;53.560;10.246;2023-05-03T07:02:19;2.57;;;1.63;;
18748;SDS011;9503;53.560;10.246;2023-05-03T07:04:46;7.83;;;1.77;;
18748;SDS011;9503;53.560;10.246;2023-05-03T07:07:13;5.47;;;2.10;;
18748;SDS011;9503;53.560;10.246;2023-05-03T07:09:44;4.43;;;1.80;;
18748;SDS011;9503;53.560;10.246;2023-05-03T07:12:11;3.97;;;1.50;;
18748;SDS011;9503;53.560;10.246;2023-05-03T07:14:37;6.43;;;1.43;;
18748;SDS011;9503;53.560;10.246;2023-05-03T07:17:04;2.50;;;1.10;;
18748;SDS011;9503;53.560;10.246;2023-05-03T07:19:31;1.67;;;1.30;;
18748;SDS011;9503;53.560;10.246;2023-05-03T07:21:58;5.50;;;1.63;;
18748;SDS011;9503;53.560;10.246;2023-05-03T07:24:27;6.53;;;2.00;;
18748;SDS011;9503;53.560;10.246;2023-05-03T07:26:55;2.33;;;1.00;;
18748;SDS011;9503;53.560;10.246;2023-05-03T07:29:22;2.17;;;1.30;;
18748;SDS011;9503;53.560;10.246;2023-05-03T07:31:48;2.60;;;1.50;;
18748;SDS011;9503;53.560;10.246;2023-05-03T07:34:15;6.20;;;1.60;;
18748;SDS011;9503;53.560;10.246;2023-05-03T07:36:42;1.57;;;1.30;;
18748;SDS011;9503;53.560;10.246;2023-05-03T07:39:09;2.17;;;1.13;;
18748;SDS011;9503;53.560;10.246;2023-05-03T07:41:36;4.37;;;2.07;;
18748;SDS011;9503;53.560;10.246;2023-05-03T07:44:04;2.23;;;1.40;;
18748;SDS011;9503;53.560;10.246;2023-05-03T07:46:31;3.80;;;1.50;;
18748;SDS011;9503;53.560;10.246;2023-05-03T07:48:59;4.30;;;1.80;;
18748;SDS011;9503;53.560;10.246;2023-05-03T07:51:25;5.60;;;1.40;;
18748;SDS011;9503;53.560;10.246;2023-05-03T07:53:52;2.90;;;1.20;;
18748;SDS011;9503;53.560;10.246;2023-05-03T07:56:19;4.50;;;1.50;;
18748;SDS011;9503;53.560;10.246;2023-05-03T07:58:46;2.37;;;1.37;;
18748;SDS011;9503;53.560;10.246;2023-05-03T08:01:14;2.70;;;1.40;;
18748;SDS011;9503;53.560;10.246;2023-05-03T08:03:41;6.40;;;1.57;;
18748;SDS011;9503;53.560;10.246;2023-05-03T08:06:08;4.70;;;1.73;;
18748;SDS011;9503;53.560;10.246;2023-05-03T08:08:35;2.50;;;1.27;;
18748;SDS011;9503;53.560;10.246;2023-05-03T08:11:02;1.50;;;1.40;;
18748;SDS011;9503;53.560;10.246;2023-05-03T08:13:31;3.43;;;1.40;;
18748;SDS011;9503;53.560;10.246;2023-05-03T08:15:58;2.30;;;1.50;;
18748;SDS011;9503;53.560;10.246;2023-05-03T08:18:26;5.43;;;1.50;;
18748;SDS011;9503;53.560;10.246;2023-05-03T08:20:53;3.40;;;1.33;;
18748;SDS011;9503;53.560;10.246;2023-05-03T08:23:19;9.13;;;1.33;;
18748;SDS011;9503;53.560;10.246;2023-05-03T08:25:46;2.07;;;1.40;;
18748;SDS011;9503;53.560;10.246;2023-05-03T08:28:13;3.03;;;1.30;;
18748;SDS011;9503;53.560;10.246;2023-05-03T08:30:40;2.00;;;1.43;;
18748;SDS011;9503;53.560;10.246;2023-05-03T08:33:07;4.30;;;1.53;;
18748;SDS011;9503;53.560;10.246;2023-05-03T08:35:36;4.60;;;1.30;;
18748;SDS011;9503;53.560;10.246;2023-05-03T08:38:03;2.40;;;1.30;;
18748;SDS011;9503;53.560;10.246;2023-05-03T08:40:30;2.67;;;1.63;;
18748;SDS011;9503;53.560;10.246;2023-05-03T08:43:05;3.33;;;1.60;;
18748;SDS011;9503;53.560;10.246;2023-05-03T08:45:33;4.80;;;1.33;;
18748;SDS011;9503;53.560;10.246;2023-05-03T08:48:01;2.43;;;1.40;;
18748;SDS011;9503;53.560;10.246;2023-05-03T08:50:28;4.70;;;1.57;;
18748;SDS011;9503;53.560;10.246;2023-05-03T08:52:57;4.00;;;1.50;;
18748;SDS011;9503;53.560;10.246;2023-05-03T08:55:24;2.30;;;1.37;;
18748;SDS011;9503;53.560;10.246;2023-05-03T08:57:52;6.60;;;1.67;;
18748;SDS011;9503;53.560;10.246;2023-05-03T09:00:18;3.80;;;1.40;;
18748;SDS011;9503;53.560;10.246;2023-05-03T09:02:53;2.33;;;1.30;;
18748;SDS011;9503;53.560;10.246;2023-05-03T09:05:29;3.33;;;1.40;;
18748;SDS011;9503;53.560;10.246;2023-05-03T09:08:00;2.67;;;1.40;;
18748;SDS011;9503;53.560;10.246;2023-05-03T09:10:28;3.63;;;1.40;;
18748;SDS011;9503;53.560;10.246;2023-05-03T09:12:59;6.73;;;1.50;;
18748;SDS011;9503;53.560;10.246;2023-05-03T09:15:27;2.10;;;1.40;;
18748;SDS011;9503;53.560;10.246;2023-05-03T09:18:07;2.67;;;1.40;;
18748;SDS011;9503;53.560;10.246;2023-05-03T09:20:36;4.40;;;1.37;;
18748;SDS011;9503;53.560;10.246;2023-05-03T09:23:06;3.13;;;1.60;;
18748;SDS011;9503;53.560;10.246;2023-05-03T09:25:39;2.20;;;1.50;;
18748;SDS011;9503;53.560;10.246;2023-05-03T09:28:11;4.20;;;1.33;;
18748;SDS011;9503;53.560;10.246;2023-05-03T09:30:38;1.97;;;1.80;;
18748;SDS011;9503;53.560;10.246;2023-05-03T09:33:05;2.90;;;1.30;;
18748;SDS011;9503;53.560;10.246;2023-05-03T09:35:32;3.10;;;1.40;;
18748;SDS011;9503;53.560;10.246;2023-05-03T09:37:58;3.80;;;1.40;;
18748;SDS011;9503;53.560;10.246;2023-05-03T09:40:27;4.20;;;1.37;;
18748;SDS011;9503;53.560;10.246;2023-05-03T09:43:06;1.50;;;1.40;;
18748;SDS011;9503;53.560;10.246;2023-05-03T09:45:34;4.00;;;1.60;;
18748;SDS011;9503;53.560;10.246;2023-05-03T09:48:01;1.53;;;1.20;;
18748;SDS011;9503;53.560;10.246;2023-05-03T09:50:30;1.60;;;1.23;;
18748;SDS011;9503;53.560;10.246;2023-05-03T09:52:58;2.13;;;1.57;;
18748;SDS011;9503;53.560;10.246;2023-05-03T09:55:31;3.72;;;1.30;;
18748;SDS011;9503;53.560;10.246;2023-05-03T09:57:59;2.72;;;1.38;;
18748;SDS011;9503;53.560;10.246;2023-05-03T10:00:32;4.25;;;1.65;;
18748;SDS011;9503;53.560;10.246;2023-05-03T10:03:01;1.77;;;1.13;;
18748;SDS011;9503;53.560;10.246;2023-05-03T10:05:32;4.72;;;1.55;;
18748;SDS011;9503;53.560;10.246;2023-05-03T10:08:01;3.10;;;1.20;;
18748;SDS011;9503;53.560;10.246;2023-05-03T10:10:31;3.35;;;1.20;;
18748;SDS011;9503;53.560;10.246;2023-05-03T10:13:00;5.65;;;1.45;;
18748;SDS011;9503;53.560;10.246;2023-05-03T10:15:28;2.97;;;1.40;;
18748;SDS011;9503;53.560;10.246;2023-05-03T10:17:56;2.20;;;1.15;;
18748;SDS011;9503;53.560;10.246;2023-05-03T10:20:29;1.42;;;1.27;;
18748;SDS011;9503;53.560;10.246;2023-05-03T10:23:07;1.65;;;1.52;;
18748;SDS011;9503;53.560;10.246;2023-05-03T10:25:36;5.13;;;1.65;;
18748;SDS011;9503;53.560;10.246;2023-05-03T10:28:04;3.25;;;1.50;;
18748;SDS011;9503;53.560;10.246;2023-05-03T10:30:32;2.60;;;1.58;;
18748;SDS011;9503;53.560;10.246;2023-05-03T10:33:27;2.78;;;1.55;;
18748;SDS011;9503;53.560;10.246;2023-05-03T10:35:54;3.28;;;1.50;;
18748;SDS011;9503;53.560;10.246;2023-05-03T10:38:22;2.28;;;1.25;;
18748;SDS011;9503;53.560;10.246;2023-05-03T10:40:51;3.58;;;1.40;;
18748;SDS011;9503;53.560;10.246;2023-05-03T10:49:13;2.85;;;1.52;;
18748;SDS011;9503;53.560;10.246;2023-05-03T10:51:40;3.80;;;1.50;;
18748;SDS011;9503;53.560;10.246;2023-05-03T10:54:09;1.90;;;1.52;;
18748;SDS011;9503;53.560;10.246;2023-05-03T10:56:47;3.63;;;1.75;;
18748;SDS011;9503;53.560;10.246;2023-05-03T10:59:15;1.85;;;1.40;;
18748;SDS011;9503;53.560;10.246;2023-05-03T11:01:41;4.93;;;1.73;;
18748;SDS011;9503;53.560;10.246;2023-05-03T11:04:10;4.45;;;1.60;;
18748;SDS011;9503;53.560;10.246;2023-05-03T11:06:39;3.35;;;1.65;;
18748;SDS011;9503;53.560;10.246;2023-05-03T11:09:06;3.85;;;1.65;;
18748;SDS011;9503;53.560;10.246;2023-05-03T11:11:34;4.20;;;1.60;;
18748;SDS011;9503;53.560;10.246;2023-05-03T11:14:04;1.95;;;1.63;;
18748;SDS011;9503;53.560;10.246;2023-05-03T11:16:31;2.90;;;1.60;;
18748;SDS011;9503;53.560;10.246;2023-05-03T11:18:58;5.60;;;1.67;;
18748;SDS011;9503;53.560;10.246;2023-05-03T11:21:25;2.20;;;1.60;;
18748;SDS011;9503;53.560;10.246;2023-05-03T11:23:52;3.20;;;1.70;;
18748;SDS011;9503;53.560;10.246;2023-05-03T11:26:18;4.18;;;1.33;;
18748;SDS011;9503;53.560;10.246;2023-05-03T11:28:50;7.18;;;1.73;;
18748;SDS011;9503;53.560;10.246;2023-05-03T11:31:19;5.40;;;1.95;;
18748;SDS011;9503;53.560;10.246;2023-05-03T11:33:47;3.40;;;1.58;;
18748;SDS011;9503;53.560;10.246;2023-05-03T11:36:14;2.88;;;1.77;;
18748;SDS011;9503;53.560;10.246;2023-05-03T11:38:41;5.20;;;1.45;;
18748;SDS011;9503;53.560;10.246;2023-05-03T11:41:10;3.45;;;1.63;;
18748;SDS011;9503;53.560;10.246;2023-05-03T11:43:39;3.63;;;1.40;;
18748;SDS011;9503;53.560;10.246;2023-05-03T11:46:06;5.78;;;1.90;;
18748;SDS011;9503;53.560;10.246;2023-05-03T11:48:35;3.10;;;1.48;;
18748;SDS011;9503;53.560;10.246;2023-05-03T11:51:05;3.20;;;1.60;;
18748;SDS011;9503;53.560;10.246;2023-05-03T11:53:35;4.05;;;1.95;;
18748;SDS011;9503;53.560;10.246;2023-05-03T11:56:05;1.30;;;1.20;;
18748;SDS011;9503;53.560;10.246;2023-05-03T11:58:32;2.97;;;1.65;;
18748;SDS011;9503;53.560;10.246;2023-05-03T12:00:59;5.65;;;1.77;;
18748;SDS011;9503;53.560;10.246;2023-05-03T12:03:27;2.45;;;1.58;;
18748;SDS011;9503;53.560;10.246;2023-05-03T12:05:56;3.58;;;1.85;;
18748;SDS011;9503;53.560;10.246;2023-05-03T12:08:26;3.55;;;1.52;;
18748;SDS011;9503;53.560;10.246;2023-05-03T12:10:54;3.92;;;1.75;;
18748;SDS011;9503;53.560;10.246;2023-05-03T12:13:27;3.42;;;1.48;;
18748;SDS011;9503;53.560;10.246;2023-05-03T12:15:55;3.60;;;1.60;;
18748;SDS011;9503;53.560;10.246;2023-05-03T12:18:24;3.42;;;1.60;;
18748;SDS011;9503;53.560;10.246;2023-05-03T12:20:54;2.97;;;1.75;;
18748;SDS011;9503;53.560;10.246;2023-05-03T12:23:23;4.07;;;1.70;;
18748;SDS011;9503;53.560;10.246;2023-05-03T12:25:50;2.78;;;1.70;;
18748;SDS011;9503;53.560;10.246;2023-05-03T12:28:17;4.82;;;1.67;;
18748;SDS011;9503;53.560;10.246;2023-05-03T12:30:45;3.25;;;1.48;;
18748;SDS011;9503;53.560;10.246;2023-05-03T12:33:11;3.20;;;1.55;;
18748;SDS011;9503;53.560;10.246;2023-05-03T12:35:39;3.38;;;1.80;;
18748;SDS011;9503;53.560;10.246;2023-05-03T12:38:06;3.42;;;1.67;;
18748;SDS011;9503;53.560;10.246;2023-05-03T12:40:34;4.13;;;1.63;;
18748;SDS011;9503;53.560;10.246;2023-05-03T12:43:00;1.45;;;1.30;;
18748;SDS011;9503;53.560;10.246;2023-05-03T12:45:28;2.35;;;1.50;;
18748;SDS011;9503;53.560;10.246;2023-05-03T12:47:55;4.47;;;1.83;;
18748;SDS011;9503;53.560;10.246;2023-05-03T12:50:22;4.15;;;1.85;;
18748;SDS011;9503;53.560;10.246;2023-05-03T12:52:49;4.05;;;1.73;;
18748;SDS011;9503;53.560;10.246;2023-05-03T12:55:16;6.70;;;2.17;;
18748;SDS011;9503;53.560;10.246;2023-05-03T12:57:44;5.05;;;1.90;;
18748;SDS011;9503;53.560;10.246;2023-05-03T13:00:11;7.93;;;1.80;;
18748;SDS011;9503;53.560;10.246;2023-05-03T13:02:40;7.95;;;1.77;;
18748;SDS011;9503;53.560;10.246;2023-05-03T13:05:09;3.78;;;1.70;;
18748;SDS011;9503;53.560;10.246;2023-05-03T13:07:37;1.70;;;1.58;;
18748;SDS011;9503;53.560;10.246;2023-05-03T13:10:05;2.60;;;1.60;;
18748;SDS011;9503;53.560;10.246;2023-05-03T13:12:32;3.90;;;2.00;;
18748;SDS011;9503;53.560;10.246;2023-05-03T13:15:01;3.55;;;1.88;;
18748;SDS011;9503;53.560;10.246;2023-05-03T13:17:29;4.57;;;1.75;;
18748;SDS011;9503;53.560;10.246;2023-05-03T13:19:56;6.15;;;1.80;;
18748;SDS011;9503;53.560;10.246;2023-05-03T13:22:23;1.92;;;1.77;;
18748;SDS011;9503;53.560;10.246;2023-05-03T13:24:49;6.25;;;1.85;;
18748;SDS011;9503;53.560;10.246;2023-05-03T13:27:16;3.17;;;1.75;;
18748;SDS011;9503;53.560;10.246;2023-05-03T13:29:43;3.83;;;1.95;;
18748;SDS011;9503;53.560;10.246;2023-05-03T13:32:14;2.92;;;1.73;;
18748;SDS011;9503;53.560;10.246;2023-05-03T13:34:40;3.42;;;2.05;;
18748;SDS011;9503;53.560;10.246;2023-05-03T13:37:07;3.50;;;1.83;;
18748;SDS011;9503;53.560;10.246;2023-05-03T13:39:36;4.13;;;1.88;;
18748;SDS011;9503;53.560;10.246;2023-05-03T13:42:02;6.32;;;2.05;;
18748;SDS011;9503;53.560;10.246;2023-05-03T13:44:29;4.82;;;2.08;;
18748;SDS011;9503;53.560;10.246;2023-05-03T13:46:56;3.58;;;2.22;;
18748;SDS011;9503;53.560;10.246;2023-05-03T13:49:24;3.15;;;2.00;;
18748;SDS011;9503;53.560;10.246;2023-05-03T13:51:50;2.58;;;2.00;;
18748;SDS011;9503;53.560;10.246;2023-05-03T13:54:18;2.05;;;1.85;;
18748;SDS011;9503;53.560;10.246;2023-05-03T13:56:45;4.60;;;2.13;;
18748;SDS011;9503;53.560;10.246;2023-05-03T13:59:12;4.88;;;1.77;;
18748;SDS011;9503;53.560;10.246;2023-05-03T14:01:39;3.80;;;2.08;;
18748;SDS011;9503;53.560;10.246;2023-05-03T14:04:07;3.80;;;2.00;;
18748;SDS011;9503;53.560;10.246;2023-05-03T14:06:35;4.50;;;1.70;;
18748;SDS011;9503;53.560;10.246;2023-05-03T14:09:02;4.03;;;1.83;;
18748;SDS011;9503;53.560;10.246;2023-05-03T14:11:30;3.78;;;1.88;;
18748;SDS011;9503;53.560;10.246;2023-05-03T14:13:57;3.25;;;2.10;;
18748;SDS011;9503;53.560;10.246;2023-05-03T14:16:25;3.70;;;2.15;;
18748;SDS011;9503;53.560;10.246;2023-05-03T14:18:55;4.25;;;1.80;;
18748;SDS011;9503;53.560;10.246;2023-05-03T14:21:22;2.10;;;1.52;;
18748;SDS011;9503;53.560;10.246;2023-05-03T14:23:50;5.15;;;1.75;;
18748;SDS011;9503;53.560;10.246;2023-05-03T14:26:19;3.95;;;1.88;;
18748;SDS011;9503;53.560;10.246;2023-05-03T14:28:48;4.47;;;1.83;;
18748;SDS011;9503;53.560;10.246;2023-05-03T14:31:14;2.38;;;1.80;;
18748;SDS011;9503;53.560;10.246;2023-05-03T14:33:41;5.45;;;2.13;;
18748;SDS011;9503;53.560;10.246;2023-05-03T14:36:08;1.70;;;1.60;;
18748;SDS011;9503;53.560;10.246;2023-05-03T14:38:35;4.53;;;1.65;;
18748;SDS011;9503;53.560;10.246;2023-05-03T14:41:03;5.35;;;1.58;;
18748;SDS011;9503;53.560;10.246;2023-05-03T14:43:30;2.67;;;1.70;;
18748;SDS011;9503;53.560;10.246;2023-05-03T14:45:57;3.72;;;1.83;;
18748;SDS011;9503;53.560;10.246;2023-05-03T14:48:23;2.30;;;1.60;;
18748;SDS011;9503;53.560;10.246;2023-05-03T14:50:50;3.90;;;1.70;;
18748;SDS011;9503;53.560;10.246;2023-05-03T14:53:17;5.28;;;1.90;;
18748;SDS011;9503;53.560;10.246;2023-05-03T14:55:44;2.30;;;1.88;;